Time;durP1;ratioP1;P1;durP2;ratioP2;P2;SDS_P1;SDS_P2;PMS_P1;PMS_P2;Temp;Humidity;BMP_temperature;BMP_pressure;BME280_temperature;BME280_humidity;BME280_pressure;Samples;Min_cycle;Max_cycle;Signal;HPM_P1;HPM_P2
2021/12/12 05:02:05;;;;;;;13.47;6.73;;;1.70;99.70;;;;;;5014528;28;20175;-66
2021/12/12 05:04:38;;;;;;;13.90;6.63;;;1.60;99.70;;;;;;5013492;28;20234;-66
2021/12/12 05:07:10;;;;;;;13.47;6.43;;;1.60;99.70;;;;;;5014297;28;20878;-65
2021/12/12 05:09:43;;;;;;;13.77;6.20;;;1.50;99.70;;;;;;5014166;28;21031;-65
2021/12/12 05:12:17;;;;;;;13.97;6.33;;;1.50;99.70;;;;;;5014503;28;20505;-67
2021/12/12 05:14:51;;;;;;;12.60;6.13;;;1.50;99.70;;;;;;5013704;28;20511;-66
2021/12/12 05:17:24;;;;;;;14.70;5.77;;;1.60;99.70;;;;;;5014143;28;20831;-65
2021/12/12 05:19:55;;;;;;;14.80;6.03;;;1.70;99.70;;;;;;5014182;28;20476;-66
2021/12/12 05:22:26;;;;;;;13.83;6.20;;;1.80;99.70;;;;;;5014067;28;20464;-65
2021/12/12 05:24:54;;;;;;;13.10;5.83;;;1.90;99.70;;;;;;5013968;28;20952;-66
2021/12/12 05:27:25;;;;;;;14.73;6.10;;;1.90;99.70;;;;;;5013980;28;20449;-66
2021/12/12 05:29:58;;;;;;;10.90;5.23;;;1.90;99.70;;;;;;5013701;28;21059;-65
2021/12/12 05:32:26;;;;;;;11.30;5.60;;;1.90;99.70;;;;;;5012723;28;20495;-66
2021/12/12 05:34:54;;;;;;;14.10;6.00;;;1.90;99.70;;;;;;5013621;28;20449;-67
2021/12/12 05:37:22;;;;;;;12.30;5.50;;;1.90;99.70;;;;;;5013793;28;20818;-65
2021/12/12 05:39:49;;;;;;;12.77;5.70;;;1.90;99.70;;;;;;5013874;28;20474;-65
2021/12/12 05:42:18;;;;;;;13.00;5.67;;;1.90;99.70;;;;;;5013714;28;20434;-66
2021/12/12 05:44:45;;;;;;;11.63;5.20;;;1.90;99.70;;;;;;5013615;28;20441;-65
2021/12/12 05:47:13;;;;;;;16.27;5.33;;;1.90;99.70;;;;;;5013383;28;20453;-65
2021/12/12 05:49:42;;;;;;;10.77;5.10;;;1.90;99.70;;;;;;5013637;28;20503;-65
2021/12/12 05:52:11;;;;;;;14.50;5.53;;;2.00;99.70;;;;;;5013491;28;20858;-65
2021/12/12 05:54:39;;;;;;;19.50;6.40;;;1.90;99.70;;;;;;5013478;28;20476;-64
2021/12/12 05:57:08;;;;;;;12.10;5.70;;;1.90;99.70;;;;;;5013821;28;20941;-66
2021/12/12 05:59:34;;;;;;;15.03;6.23;;;1.90;99.70;;;;;;5013272;28;20504;-66
2021/12/12 06:02:03;;;;;;;10.43;5.40;;;1.80;99.70;;;;;;5013345;28;20441;-66
2021/12/12 06:04:31;;;;;;;13.23;6.00;;;1.80;99.70;;;;;;5013022;28;20540;-66
2021/12/12 06:07:02;;;;;;;10.77;5.20;;;1.70;99.70;;;;;;5012986;28;20536;-66
2021/12/12 06:09:29;;;;;;;13.50;5.60;;;1.80;99.70;;;;;;5013099;28;20984;-66
2021/12/12 06:11:56;;;;;;;18.77;6.60;;;1.90;99.70;;;;;;5077129;23;20494;-66
2021/12/12 06:14:23;;;;;;;17.63;6.00;;;1.90;99.70;;;;;;5071123;28;20435;-64
2021/12/12 06:16:51;;;;;;;15.87;6.57;;;1.80;99.70;;;;;;5072379;28;20469;-66
2021/12/12 06:19:20;;;;;;;18.63;6.57;;;1.80;99.70;;;;;;5072706;28;20484;-66
2021/12/12 06:21:50;;;;;;;15.27;7.57;;;1.90;99.70;;;;;;5064871;28;20455;-66
2021/12/12 06:24:19;;;;;;;17.57;7.60;;;1.70;99.70;;;;;;5062065;28;20494;-67
2021/12/12 06:26:46;;;;;;;16.37;7.27;;;1.60;99.70;;;;;;5062848;28;20472;-66
2021/12/12 06:29:14;;;;;;;12.23;6.53;;;1.50;99.70;;;;;;5061802;28;20489;-67
2021/12/12 06:31:44;;;;;;;16.00;7.40;;;1.50;99.70;;;;;;5062508;28;20456;-68
2021/12/12 06:34:12;;;;;;;13.20;6.33;;;1.40;99.70;;;;;;5061080;28;20444;-68
2021/12/12 06:36:40;;;;;;;18.93;7.63;;;1.30;99.70;;;;;;5060990;28;20447;-67
2021/12/12 06:39:10;;;;;;;13.00;6.80;;;1.20;99.70;;;;;;5062720;28;20446;-66
2021/12/12 06:41:38;;;;;;;14.43;6.80;;;1.20;99.70;;;;;;5061765;28;20883;-67
2021/12/12 06:44:07;;;;;;;14.57;7.50;;;1.10;99.70;;;;;;5060417;28;20482;-67
2021/12/12 06:46:36;;;;;;;16.87;8.60;;;1.00;99.70;;;;;;5061543;28;20496;-67
2021/12/12 06:49:05;;;;;;;19.10;8.70;;;1.00;99.70;;;;;;5062401;28;20862;-67
2021/12/12 06:51:34;;;;;;;24.17;8.87;;;1.00;99.70;;;;;;5060678;28;20468;-68
2021/12/12 06:54:02;;;;;;;17.03;7.93;;;0.90;99.70;;;;;;5060884;28;20446;-66
2021/12/12 06:56:29;;;;;;;26.93;11.30;;;0.90;99.70;;;;;;5062148;28;20439;-67
2021/12/12 06:58:58;;;;;;;21.37;9.63;;;0.90;99.70;;;;;;5061056;28;20848;-67
2021/12/12 07:01:30;;;;;;;21.70;9.50;;;0.90;99.70;;;;;;5060424;28;20499;-67
2021/12/12 07:03:57;;;;;;;21.03;8.40;;;0.90;99.70;;;;;;5061194;28;20439;-67
2021/12/12 07:06:26;;;;;;;31.87;11.37;;;1.00;99.70;;;;;;5061896;28;20506;-67
2021/12/12 07:08:56;;;;;;;22.87;11.10;;;1.00;99.70;;;;;;5060546;28;20494;-69
2021/12/12 07:11:27;;;;;;;24.33;10.83;;;1.00;99.70;;;;;;5060013;28;20485;-67
2021/12/12 07:13:54;;;;;;;16.50;7.50;;;0.90;99.70;;;;;;5060621;28;20475;-69
2021/12/12 07:16:23;;;;;;;16.67;7.23;;;0.80;99.70;;;;;;5059750;28;20965;-67
2021/12/12 07:18:52;;;;;;;16.33;7.13;;;0.70;99.70;;;;;;5060102;28;20497;-68
2021/12/12 07:21:20;;;;;;;20.57;8.10;;;0.70;99.70;;;;;;5060995;28;20509;-67
2021/12/12 07:23:49;;;;;;;15.03;7.10;;;0.70;99.70;;;;;;5059215;28;20451;-66
2021/12/12 07:26:17;;;;;;;15.20;7.00;;;0.70;99.70;;;;;;5051057;28;20459;-69
2021/12/12 07:28:45;;;;;;;17.70;7.63;;;0.70;99.70;;;;;;5050724;28;20483;-70
2021/12/12 07:31:16;;;;;;;17.03;7.60;;;0.80;99.70;;;;;;5051431;28;20471;-67
2021/12/12 07:33:49;;;;;;;18.47;7.57;;;0.80;99.70;;;;;;5051041;28;21006;-66
2021/12/12 07:36:18;;;;;;;16.10;8.03;;;0.70;99.70;;;;;;5050742;28;20448;-66
2021/12/12 07:38:49;;;;;;;17.40;7.73;;;0.80;99.70;;;;;;5051199;28;20447;-67
2021/12/12 07:41:19;;;;;;;16.10;7.03;;;0.90;99.70;;;;;;5051086;28;20490;-67
2021/12/12 07:43:46;;;;;;;18.37;8.40;;;1.00;99.70;;;;;;5051182;28;20824;-67
2021/12/12 07:46:13;;;;;;;20.23;8.20;;;1.00;99.70;;;;;;5050677;28;20444;-67
2021/12/12 07:48:45;;;;;;;17.43;7.80;;;1.10;99.70;;;;;;5051070;28;20527;-67
2021/12/12 07:51:11;;;;;;;19.27;7.57;;;1.10;99.70;;;;;;5051161;28;20692;-66
2021/12/12 07:53:38;;;;;;;17.33;7.50;;;1.20;99.70;;;;;;5050990;28;20560;-67
2021/12/12 07:56:06;;;;;;;20.57;8.17;;;1.20;99.70;;;;;;5049864;28;20447;-67
2021/12/12 07:58:33;;;;;;;17.97;8.33;;;1.30;99.70;;;;;;5051097;28;20493;-66
2021/12/12 08:01:04;;;;;;;18.83;7.90;;;1.30;99.70;;;;;;5050818;28;20451;-68
2021/12/12 08:03:34;;;;;;;18.00;7.67;;;1.30;99.70;;;;;;5050940;28;20805;-67
2021/12/12 08:06:02;;;;;;;19.80;8.40;;;1.40;99.70;;;;;;5050580;28;20833;-69
2021/12/12 08:08:31;;;;;;;18.00;7.50;;;1.50;99.70;;;;;;5051008;28;20829;-67
2021/12/12 08:10:59;;;;;;;19.70;7.27;;;1.40;99.70;;;;;;5050641;28;20448;-66
2021/12/12 08:13:26;;;;;;;15.17;7.30;;;1.40;99.70;;;;;;5050968;28;20483;-67
2021/12/12 08:15:54;;;;;;;25.97;11.50;;;1.50;99.70;;;;;;5050172;28;20451;-68
2021/12/12 08:18:21;;;;;;;22.30;10.00;;;1.50;99.70;;;;;;5050784;28;20943;-67
2021/12/12 08:20:50;;;;;;;20.40;9.47;;;1.60;99.70;;;;;;5050759;28;20859;-67
2021/12/12 08:23:20;;;;;;;22.80;9.20;;;1.60;99.70;;;;;;5050814;28;20446;-67
2021/12/12 08:25:49;;;;;;;27.30;11.77;;;1.70;99.70;;;;;;5050520;28;20447;-67
2021/12/12 08:28:16;;;;;;;23.57;9.43;;;1.90;99.70;;;;;;5052597;28;20797;-67
2021/12/12 08:30:44;;;;;;;19.47;9.00;;;2.10;99.70;;;;;;5062081;28;20431;-66
2021/12/12 08:33:13;;;;;;;23.73;10.30;;;2.30;99.70;;;;;;5057569;28;20475;-67
2021/12/12 08:35:42;;;;;;;25.33;8.90;;;2.50;99.70;;;;;;5059736;28;20474;-67
2021/12/12 08:38:10;;;;;;;16.60;7.57;;;2.70;99.70;;;;;;5062087;28;20443;-69
2021/12/12 08:40:42;;;;;;;14.73;7.73;;;2.90;99.70;;;;;;5059234;28;20440;-70
2021/12/12 08:43:12;;;;;;;23.80;10.10;;;2.90;99.70;;;;;;5061922;28;20459;-70
2021/12/12 08:45:43;;;;;;;17.13;8.03;;;2.80;99.70;;;;;;5059418;28;20577;-68
2021/12/12 08:48:10;;;;;;;17.83;7.93;;;2.90;99.70;;;;;;5059097;28;20447;-67
2021/12/12 08:50:39;;;;;;;15.90;8.20;;;3.10;99.70;;;;;;5059832;28;20446;-67
2021/12/12 08:53:08;;;;;;;16.20;7.70;;;3.10;99.70;;;;;;5061111;28;20479;-68
2021/12/12 08:55:43;;;;;;;14.70;7.20;;;3.10;99.70;;;;;;5060310;28;20543;-68
2021/12/12 08:58:17;;;;;;;14.53;7.50;;;3.20;99.70;;;;;;5060318;28;20768;-67
2021/12/12 09:00:52;;;;;;;14.13;7.13;;;3.50;99.70;;;;;;5058954;28;20439;-67
2021/12/12 09:03:23;;;;;;;14.10;7.00;;;3.40;99.70;;;;;;5062116;28;20442;-68
2021/12/12 09:05:51;;;;;;;14.63;6.40;;;3.20;99.70;;;;;;5049858;28;20859;-68
2021/12/12 09:08:26;;;;;;;12.67;6.73;;;3.30;99.70;;;;;;5052752;28;20440;-68
2021/12/12 09:11:03;;;;;;;17.13;7.60;;;3.20;99.70;;;;;;5067997;28;20442;-67
2021/12/12 09:13:34;;;;;;;14.67;7.37;;;3.40;99.70;;;;;;5073599;28;20478;-68
2021/12/12 09:16:06;;;;;;;15.67;7.40;;;3.40;99.70;;;;;;5057008;28;20504;-69
2021/12/12 09:18:39;;;;;;;12.03;5.77;;;3.40;99.70;;;;;;5073363;28;20454;-67
2021/12/12 09:21:10;;;;;;;12.17;6.10;;;3.30;99.70;;;;;;5073612;28;20478;-67
2021/12/12 09:23:41;;;;;;;12.70;6.23;;;3.60;99.70;;;;;;5073551;28;20451;-67
2021/12/12 09:26:13;;;;;;;10.40;5.43;;;3.70;99.70;;;;;;5067343;28;20464;-67
2021/12/12 09:28:45;;;;;;;12.70;6.20;;;3.90;99.70;;;;;;5069399;28;20517;-69
2021/12/12 09:31:15;;;;;;;10.53;5.40;;;4.00;99.70;;;;;;5068660;28;20490;-68
2021/12/12 09:33:49;;;;;;;11.10;5.50;;;4.10;99.70;;;;;;5065526;28;20479;-69
2021/12/12 09:36:19;;;;;;;11.43;5.60;;;3.70;99.70;;;;;;5070942;28;20934;-70
2021/12/12 09:38:52;;;;;;;11.87;5.87;;;3.60;99.70;;;;;;5071118;28;20451;-67
2021/12/12 09:41:42;;;;;;;12.67;5.60;;;3.70;99.70;;;;;;5069836;28;20478;-67
2021/12/12 09:44:30;;;;;;;11.00;4.93;;;3.90;99.70;;;;;;5064668;28;20824;-68
2021/12/12 09:47:25;;;;;;;10.00;5.07;;;3.90;99.70;;;;;;5072399;28;20458;-66
2021/12/12 09:53:22;;;;;;;10.30;5.30;;;4.10;99.70;;;;;;5072653;28;20482;-68
2021/12/12 09:55:54;;;;;;;9.20;4.90;;;4.00;99.70;;;;;;5059480;28;20438;-67
2021/12/12 09:58:38;;;;;;;12.77;5.50;;;4.20;99.70;;;;;;5067033;28;20462;-69
2021/12/12 10:01:07;;;;;;;11.83;5.80;;;4.40;99.70;;;;;;5066513;28;20508;-67
2021/12/12 10:03:51;;;;;;;10.77;5.57;;;4.30;99.70;;;;;;5067360;28;20462;-67
2021/12/12 10:06:26;;;;;;;18.00;7.53;;;4.40;99.70;;;;;;5063172;28;20486;-67
2021/12/12 10:08:59;;;;;;;13.67;6.40;;;4.50;99.70;;;;;;5065623;28;20818;-69
2021/12/12 10:11:37;;;;;;;9.80;4.63;;;4.60;99.70;;;;;;5063075;28;20466;-68
2021/12/12 10:14:14;;;;;;;9.37;5.00;;;4.70;99.70;;;;;;5063297;28;20482;-69
2021/12/12 10:16:49;;;;;;;11.00;5.37;;;4.80;99.70;;;;;;5062031;28;20795;-68
2021/12/12 10:19:26;;;;;;;8.00;4.47;;;4.60;99.70;;;;;;5062237;28;20439;-68
2021/12/12 10:22:15;;;;;;;8.70;4.77;;;4.60;99.70;;;;;;5062111;28;20528;-67
2021/12/12 10:24:49;;;;;;;8.33;4.40;;;4.60;99.70;;;;;;5062981;28;20435;-67
2021/12/12 10:27:23;;;;;;;7.57;4.30;;;4.60;99.70;;;;;;5061373;28;20440;-67
2021/12/12 10:30:03;;;;;;;8.70;4.40;;;4.70;99.70;;;;;;5060690;28;20460;-68
2021/12/12 10:32:33;;;;;;;9.20;4.53;;;4.80;99.70;;;;;;5063383;28;20866;-67
2021/12/12 10:35:05;;;;;;;10.43;4.70;;;4.90;99.70;;;;;;5066084;28;20473;-67
2021/12/12 10:37:36;;;;;;;8.40;4.23;;;5.10;99.70;;;;;;5072268;28;20458;-69
2021/12/12 10:40:07;;;;;;;7.60;3.97;;;5.00;99.70;;;;;;5068681;28;20435;-67
2021/12/12 10:42:43;;;;;;;8.30;4.30;;;4.90;99.70;;;;;;5064931;28;20483;-68
2021/12/12 10:45:16;;;;;;;7.83;3.90;;;4.80;99.70;;;;;;5063011;28;20450;-68
2021/12/12 10:47:53;;;;;;;16.40;6.53;;;4.80;99.70;;;;;;5070255;28;20949;-68
2021/12/12 10:50:27;;;;;;;14.17;6.03;;;4.70;99.70;;;;;;5056080;28;20447;-67
2021/12/12 10:53:01;;;;;;;11.20;4.90;;;4.80;99.70;;;;;;5051871;28;20463;-67
2021/12/12 10:55:34;;;;;;;10.10;5.00;;;4.90;99.70;;;;;;5063508;28;20865;-67
2021/12/12 10:58:05;;;;;;;8.83;4.50;;;5.00;99.70;;;;;;5062222;28;20450;-68
2021/12/12 11:00:38;;;;;;;9.83;5.33;;;5.10;99.70;;;;;;5069852;28;20447;-68
2021/12/12 11:03:08;;;;;;;9.53;5.10;;;5.30;99.70;;;;;;5069332;28;20490;-67
2021/12/12 11:05:37;;;;;;;7.60;4.57;;;5.00;99.70;;;;;;5068274;28;20455;-67
2021/12/12 11:08:10;;;;;;;7.60;4.37;;;5.10;99.70;;;;;;5062824;28;20965;-68
2021/12/12 11:10:40;;;;;;;9.47;3.90;;;5.00;99.70;;;;;;5049953;28;20554;-67
2021/12/12 11:13:15;;;;;;;10.50;5.00;;;5.00;99.70;;;;;;5051524;28;20472;-67
2021/12/12 11:15:49;;;;;;;11.23;4.30;;;5.20;99.70;;;;;;5061678;28;20490;-67
2021/12/12 11:18:20;;;;;;;9.10;4.37;;;5.30;99.70;;;;;;5068891;28;20447;-67
2021/12/12 11:20:51;;;;;;;14.83;5.43;;;5.40;99.70;;;;;;5050684;28;20447;-66
2021/12/12 11:23:22;;;;;;;18.53;4.97;;;5.30;99.70;;;;;;5049526;28;20450;-68
2021/12/12 11:25:53;;;;;;;9.40;4.43;;;5.50;99.70;;;;;;5066362;28;20458;-68
2021/12/12 11:28:25;;;;;;;10.30;4.60;;;5.60;99.70;;;;;;5068359;28;20860;-67
2021/12/12 11:30:58;;;;;;;8.33;3.97;;;5.70;99.70;;;;;;5069112;28;20435;-67
2021/12/12 11:33:27;;;;;;;14.47;6.57;;;5.80;99.70;;;;;;5069821;28;20481;-67
2021/12/12 11:35:56;;;;;;;7.30;4.43;;;5.70;99.70;;;;;;5066869;28;20454;-67
2021/12/12 11:38:34;;;;;;;9.80;4.20;;;5.60;99.70;;;;;;5070772;28;20446;-67
2021/12/12 11:41:06;;;;;;;9.13;4.30;;;5.60;99.70;;;;;;5070691;28;20442;-67
2021/12/12 11:43:37;;;;;;;6.80;3.57;;;5.80;99.70;;;;;;5071025;28;20808;-67
2021/12/12 11:46:12;;;;;;;8.03;3.90;;;6.00;99.70;;;;;;5070478;28;20443;-67
2021/12/12 11:48:50;;;;;;;9.20;4.20;;;5.80;99.70;;;;;;5063959;28;20459;-67
2021/12/12 11:51:22;;;;;;;10.27;3.87;;;5.80;99.70;;;;;;5070399;28;20484;-67
2021/12/12 11:53:52;;;;;;;8.50;4.10;;;6.00;99.70;;;;;;5063253;28;20478;-67
2021/12/12 11:56:24;;;;;;;9.87;3.83;;;6.00;99.70;;;;;;5069419;28;20481;-67
2021/12/12 11:59:08;;;;;;;10.47;3.70;;;6.00;99.70;;;;;;5060600;28;20504;-67
2021/12/12 12:01:51;;;;;;;6.70;3.77;;;5.80;99.70;;;;;;5060238;28;20492;-67
2021/12/12 12:04:33;;;;;;;7.23;3.57;;;5.90;99.70;;;;;;5061996;28;20442;-67
2021/12/12 12:07:09;;;;;;;7.80;3.87;;;6.10;99.70;;;;;;5052169;28;20898;-67
2021/12/12 12:09:49;;;;;;;10.10;4.07;;;6.00;99.70;;;;;;5059292;28;20441;-67
2021/12/12 12:12:35;;;;;;;10.20;4.17;;;6.00;99.70;;;;;;5060368;28;20491;-67
2021/12/12 12:15:10;;;;;;;6.90;3.53;;;6.00;99.70;;;;;;5060246;28;20540;-67
2021/12/12 12:17:55;;;;;;;6.50;3.10;;;6.20;99.70;;;;;;5057002;28;20964;-68
2021/12/12 12:20:29;;;;;;;6.10;3.13;;;6.30;99.70;;;;;;5061835;28;20470;-67
2021/12/12 12:23:02;;;;;;;6.30;3.10;;;6.20;99.70;;;;;;5061031;28;21023;-67
2021/12/12 12:26:50;;;;;;;5.00;3.00;;;6.30;99.70;;;;;;5058530;28;20877;-67
2021/12/12 12:28:29;;;;;;;6.13;3.17;;;6.40;99.70;;;;;;5056851;28;20447;-67
2021/12/12 12:35:18;;;;;;;4.60;2.70;;;6.40;99.70;;;;;;5106722;27;20533;-66
2021/12/12 12:39:06;;;;;;;5.97;3.47;;;6.30;99.70;;;;;;5075576;28;20447;-67
2021/12/12 12:42:34;;;;;;;6.37;3.20;;;6.20;99.70;;;;;;5046492;28;20946;-67
2021/12/12 12:46:11;;;;;;;6.23;3.10;;;6.10;99.70;;;;;;5044470;28;20826;-67
2021/12/12 12:49:30;;;;;;;7.50;3.90;;;6.20;99.70;;;;;;5041774;28;20447;-67
2021/12/12 12:52:39;;;;;;;7.33;3.90;;;6.30;99.70;;;;;;5044419;28;20456;-67
2021/12/12 12:55:29;;;;;;;6.07;3.20;;;6.30;99.70;;;;;;5052900;28;20432;-67
2021/12/12 12:58:05;;;;;;;8.63;3.90;;;6.40;99.70;;;;;;5057358;28;20901;-67
2021/12/12 13:00:36;;;;;;;9.07;4.00;;;6.30;99.70;;;;;;5056507;28;20435;-67
2021/12/12 13:03:12;;;;;;;8.37;4.27;;;6.40;99.70;;;;;;5057214;28;20467;-67
2021/12/12 13:06:28;;;;;;;6.00;3.10;;;6.40;99.70;;;;;;5056158;28;20474;-67
2021/12/12 13:09:17;;;;;;;6.97;3.30;;;6.50;99.70;;;;;;5056415;28;20431;-67
2021/12/12 13:12:04;;;;;;;5.70;3.20;;;6.50;99.70;;;;;;5055860;28;20459;-67
2021/12/12 13:14:40;;;;;;;6.60;3.00;;;6.50;99.70;;;;;;5055198;28;20482;-67
2021/12/12 13:17:15;;;;;;;5.30;2.90;;;6.50;99.70;;;;;;5054650;28;20814;-67
2021/12/12 13:20:02;;;;;;;6.30;3.17;;;6.40;99.70;;;;;;5055550;28;20451;-67
2021/12/12 13:22:37;;;;;;;6.40;3.13;;;6.50;99.70;;;;;;5048518;28;20476;-67
2021/12/12 13:25:11;;;;;;;6.10;3.07;;;6.50;99.70;;;;;;5051884;28;20447;-67
2021/12/12 13:28:06;;;;;;;6.83;3.27;;;6.40;99.70;;;;;;5057691;28;20446;-67
2021/12/12 13:30:42;;;;;;;5.50;2.93;;;6.40;99.70;;;;;;5055856;28;20539;-67
2021/12/12 13:33:18;;;;;;;6.20;3.00;;;6.40;99.70;;;;;;5055279;28;20570;-67
2021/12/12 13:36:05;;;;;;;6.13;3.20;;;6.40;99.70;;;;;;5053427;28;20449;-67
2021/12/12 13:38:45;;;;;;;5.30;2.97;;;6.40;99.70;;;;;;5055654;28;20451;-67
2021/12/12 13:41:18;;;;;;;4.37;2.70;;;6.50;99.70;;;;;;5054459;28;20467;-68
2021/12/12 13:43:53;;;;;;;5.50;2.90;;;6.40;99.70;;;;;;5054087;28;20436;-67
2021/12/12 13:46:32;;;;;;;6.43;2.93;;;6.40;99.70;;;;;;5040697;28;20450;-67
2021/12/12 13:49:05;;;;;;;6.10;3.10;;;6.40;99.70;;;;;;5037335;28;20489;-68
2021/12/12 13:51:44;;;;;;;7.97;4.10;;;6.40;99.70;;;;;;5039662;28;21014;-67
2021/12/12 13:54:25;;;;;;;7.57;3.23;;;6.30;99.70;;;;;;5040123;28;20470;-67
2021/12/12 13:57:05;;;;;;;7.83;3.60;;;6.30;99.70;;;;;;5040728;28;20447;-67
2021/12/12 13:59:46;;;;;;;6.90;3.80;;;6.30;99.70;;;;;;5034912;28;20472;-67
2021/12/12 14:02:16;;;;;;;7.30;3.40;;;6.20;99.70;;;;;;5036080;28;20504;-66
2021/12/12 14:04:51;;;;;;;7.50;3.63;;;6.10;99.70;;;;;;5044136;28;21005;-66
2021/12/12 14:07:21;;;;;;;7.10;3.50;;;6.20;99.70;;;;;;5033812;28;20547;-66
2021/12/12 14:09:49;;;;;;;7.20;3.27;;;6.20;99.70;;;;;;5049412;28;20445;-66
2021/12/12 14:12:17;;;;;;;5.70;3.23;;;6.10;99.70;;;;;;5035259;28;20515;-66
2021/12/12 14:14:54;;;;;;;6.17;3.30;;;6.10;99.70;;;;;;5032159;28;20479;-66
2021/12/12 14:17:25;;;;;;;5.20;3.17;;;6.10;99.70;;;;;;5039753;28;20495;-66
2021/12/12 14:19:57;;;;;;;7.17;3.67;;;6.20;99.70;;;;;;5043103;28;20532;-66
2021/12/12 14:22:24;;;;;;;7.13;3.20;;;6.30;99.70;;;;;;5038303;28;20492;-66
2021/12/12 14:24:55;;;;;;;7.33;3.20;;;6.20;99.70;;;;;;5032856;28;20834;-66
2021/12/12 14:27:23;;;;;;;6.80;3.20;;;6.20;99.70;;;;;;5032566;28;20948;-66
2021/12/12 14:29:52;;;;;;;4.60;2.70;;;6.20;99.70;;;;;;5032379;28;20950;-66
2021/12/12 14:32:22;;;;;;;6.10;2.80;;;6.20;99.70;;;;;;5030855;28;20481;-66
2021/12/12 14:34:59;;;;;;;5.63;3.10;;;6.20;99.70;;;;;;5052716;22;20494;-66
2021/12/12 14:37:29;;;;;;;6.10;3.20;;;6.20;99.70;;;;;;5071619;28;20814;-66
2021/12/12 14:40:02;;;;;;;8.73;3.27;;;6.30;99.70;;;;;;5074086;28;20557;-66
2021/12/12 14:42:32;;;;;;;6.60;3.30;;;6.20;99.70;;;;;;5076846;28;20493;-66
2021/12/12 14:45:18;;;;;;;9.17;3.80;;;6.20;99.70;;;;;;5079195;28;20497;-66
2021/12/12 14:47:49;;;;;;;7.93;4.17;;;6.10;99.70;;;;;;5080657;28;20455;-66
2021/12/12 14:50:21;;;;;;;8.33;4.40;;;6.10;99.70;;;;;;5072310;28;20450;-66
2021/12/12 14:52:55;;;;;;;7.20;4.57;;;6.10;99.70;;;;;;5072705;28;20455;-66
2021/12/12 14:55:25;;;;;;;9.60;4.33;;;6.10;99.70;;;;;;5071091;28;20478;-66
2021/12/12 14:57:55;;;;;;;9.30;4.53;;;6.10;99.70;;;;;;5079420;28;20468;-66
2021/12/12 15:00:28;;;;;;;9.50;5.23;;;6.10;99.70;;;;;;5068811;28;20459;-67
2021/12/12 15:02:58;;;;;;;10.30;5.33;;;6.00;99.70;;;;;;5072542;28;20451;-66
2021/12/12 15:05:29;;;;;;;10.87;5.00;;;5.90;99.70;;;;;;5071260;28;20454;-66
2021/12/12 15:08:05;;;;;;;8.80;4.87;;;5.90;99.70;;;;;;5072111;28;20450;-67
2021/12/12 15:10:39;;;;;;;10.47;4.50;;;5.90;99.70;;;;;;5063425;28;20504;-66
2021/12/12 15:13:12;;;;;;;9.27;4.60;;;5.90;99.70;;;;;;5051490;28;20837;-66
2021/12/12 15:15:49;;;;;;;10.13;4.57;;;5.80;99.70;;;;;;5051958;28;20474;-66
2021/12/12 15:18:17;;;;;;;10.57;4.67;;;5.90;99.70;;;;;;5052297;28;20498;-66
2021/12/12 15:20:53;;;;;;;9.23;4.10;;;5.90;99.70;;;;;;5070654;28;20538;-66
2021/12/12 15:23:26;;;;;;;11.40;5.33;;;5.80;99.70;;;;;;5071785;28;20443;-66
2021/12/12 15:25:58;;;;;;;9.80;4.70;;;5.90;99.70;;;;;;5071548;28;20443;-66
2021/12/12 15:28:30;;;;;;;7.30;4.33;;;5.90;99.70;;;;;;5071283;28;20454;-66
2021/12/12 15:31:01;;;;;;;10.90;5.87;;;5.90;99.70;;;;;;5071984;28;20450;-66
2021/12/12 15:33:31;;;;;;;9.43;4.60;;;5.90;99.70;;;;;;5071660;28;20446;-65
2021/12/12 15:36:00;;;;;;;8.87;4.93;;;5.90;99.70;;;;;;5069734;28;20447;-66
2021/12/12 15:38:29;;;;;;;9.00;4.77;;;5.90;99.70;;;;;;5070880;28;20500;-67
2021/12/12 15:40:59;;;;;;;8.90;4.70;;;6.00;99.70;;;;;;5071730;28;20442;-66
2021/12/12 15:43:28;;;;;;;7.63;4.10;;;5.90;99.70;;;;;;5071915;28;20500;-66
2021/12/12 15:46:03;;;;;;;6.47;3.80;;;6.00;99.70;;;;;;5071260;28;20449;-66
2021/12/12 15:48:41;;;;;;;6.20;3.20;;;5.90;99.70;;;;;;5071443;28;20446;-66
2021/12/12 15:51:09;;;;;;;6.80;3.40;;;6.00;99.70;;;;;;5070817;28;20515;-66
2021/12/12 15:53:39;;;;;;;8.53;4.33;;;6.00;99.70;;;;;;5071257;28;20446;-66
2021/12/12 15:56:10;;;;;;;6.60;3.60;;;6.00;99.70;;;;;;5070882;28;20439;-66
2021/12/12 15:58:40;;;;;;;8.90;4.40;;;6.00;99.70;;;;;;5062118;28;20459;-66
2021/12/12 16:01:12;;;;;;;10.20;5.40;;;5.90;99.70;;;;;;5066373;28;20467;-66
2021/12/12 16:03:46;;;;;;;8.57;4.47;;;5.90;99.70;;;;;;5067607;28;20841;-66
2021/12/12 16:06:23;;;;;;;8.17;4.30;;;5.90;99.70;;;;;;5067988;28;20910;-67
2021/12/12 16:08:52;;;;;;;7.20;4.07;;;6.00;99.70;;;;;;5071105;28;20459;-67
2021/12/12 16:11:21;;;;;;;9.60;4.23;;;5.90;99.70;;;;;;5071269;28;20457;-67
2021/12/12 16:13:50;;;;;;;7.23;3.97;;;5.80;99.70;;;;;;5070624;28;20818;-67
2021/12/12 16:16:20;;;;;;;7.43;3.80;;;5.80;99.70;;;;;;5071863;28;20831;-66
2021/12/12 16:18:55;;;;;;;9.10;4.27;;;5.90;99.70;;;;;;5080291;28;20438;-67
2021/12/12 16:21:22;;;;;;;9.73;4.27;;;5.90;99.70;;;;;;5079262;28;20439;-66
2021/12/12 16:23:52;;;;;;;8.30;3.90;;;6.00;99.70;;;;;;5079571;28;20461;-66
2021/12/12 16:26:24;;;;;;;7.10;3.90;;;5.90;99.70;;;;;;5076282;28;20501;-67
2021/12/12 16:28:52;;;;;;;10.43;4.03;;;5.90;99.70;;;;;;5080989;28;20960;-67
2021/12/12 16:31:21;;;;;;;8.63;4.33;;;6.00;99.70;;;;;;5079404;28;20434;-66
2021/12/12 16:33:52;;;;;;;9.43;4.57;;;5.90;99.70;;;;;;5079920;28;21012;-67
2021/12/12 16:36:21;;;;;;;8.33;4.60;;;5.90;99.70;;;;;;5075683;28;20442;-67
2021/12/12 16:38:50;;;;;;;9.60;4.40;;;5.90;99.70;;;;;;5079609;28;20937;-67
2021/12/12 16:41:22;;;;;;;8.37;4.83;;;5.90;99.70;;;;;;5075704;28;20443;-66
2021/12/12 16:43:54;;;;;;;8.30;4.57;;;6.00;99.70;;;;;;5078354;28;20461;-65
2021/12/12 16:46:28;;;;;;;7.10;4.10;;;5.90;99.70;;;;;;5075153;28;20487;-67
2021/12/12 16:48:58;;;;;;;9.23;4.20;;;5.90;99.70;;;;;;5073113;28;20450;-66
2021/12/12 16:51:29;;;;;;;6.87;4.10;;;5.90;99.70;;;;;;5078266;28;20479;-67
2021/12/12 16:54:01;;;;;;;9.67;4.73;;;5.80;99.70;;;;;;5078268;28;20564;-67
2021/12/12 16:56:28;;;;;;;9.50;4.67;;;5.80;99.70;;;;;;5079354;28;20448;-65
2021/12/12 16:58:58;;;;;;;9.27;4.80;;;5.80;99.70;;;;;;5081434;28;20453;-67
2021/12/12 17:01:29;;;;;;;9.20;4.33;;;5.80;99.70;;;;;;5077010;28;20443;-68
2021/12/12 17:04:02;;;;;;;6.53;3.70;;;5.90;99.70;;;;;;5076466;28;20455;-67
2021/12/12 17:06:35;;;;;;;8.90;4.37;;;5.90;99.70;;;;;;5076409;28;21617;-67
2021/12/12 17:09:11;;;;;;;12.40;6.30;;;6.00;99.70;;;;;;5080468;28;20435;-67
2021/12/12 17:11:45;;;;;;;8.60;4.37;;;6.00;99.70;;;;;;5077711;28;20579;-67
2021/12/12 17:14:17;;;;;;;9.20;4.43;;;5.80;99.70;;;;;;5078625;28;20893;-67
2021/12/12 17:16:48;;;;;;;7.97;3.87;;;5.90;99.70;;;;;;5077573;28;20447;-67
2021/12/12 17:19:23;;;;;;;9.80;4.20;;;5.80;99.70;;;;;;5076414;28;20836;-64
2021/12/12 17:21:51;;;;;;;6.97;3.87;;;5.80;99.70;;;;;;5082280;28;20461;-65
2021/12/12 17:24:21;;;;;;;7.00;3.70;;;5.90;99.70;;;;;;5081463;28;20539;-65
2021/12/12 17:26:54;;;;;;;8.00;4.00;;;5.80;99.70;;;;;;5077729;28;20819;-67
2021/12/12 17:29:25;;;;;;;9.20;4.20;;;5.80;99.70;;;;;;5079098;28;20439;-67
2021/12/12 17:32:01;;;;;;;10.47;4.87;;;5.80;99.70;;;;;;5079417;28;20450;-67
2021/12/12 17:34:33;;;;;;;7.10;4.17;;;5.80;99.70;;;;;;5077196;28;20547;-65
2021/12/12 17:37:02;;;;;;;10.60;4.20;;;5.80;99.70;;;;;;5073751;28;21012;-65
2021/12/12 17:39:34;;;;;;;6.97;4.03;;;5.80;99.70;;;;;;5073205;28;20446;-65
2021/12/12 17:43:07;;;;;;;8.03;4.40;;;5.80;99.70;;;;;;5078969;28;20873;-65
2021/12/12 17:46:19;;;;;;;21.40;8.33;;;5.80;99.70;;;;;;5075091;28;20482;-65
2021/12/12 17:49:19;;;;;;;26.93;10.47;;;5.80;99.70;;;;;;5082239;28;20441;-66
2021/12/12 17:52:23;;;;;;;21.77;9.57;;;5.80;99.70;;;;;;5080523;28;20434;-66
2021/12/12 17:54:56;;;;;;;11.77;6.00;;;5.80;99.70;;;;;;5091929;28;20558;-66
2021/12/12 17:57:27;;;;;;;14.63;5.67;;;5.80;99.70;;;;;;5093882;28;20449;-66
2021/12/12 18:00:00;;;;;;;12.13;5.67;;;5.80;99.70;;;;;;5078085;28;20463;-66
2021/12/12 18:02:35;;;;;;;14.67;6.33;;;5.80;99.70;;;;;;5072229;28;20508;-66
2021/12/12 18:05:10;;;;;;;10.10;4.73;;;5.80;99.70;;;;;;5078024;28;20454;-66
2021/12/12 18:08:07;;;;;;;10.23;4.80;;;5.80;99.70;;;;;;5067228;28;20458;-66
2021/12/12 18:10:39;;;;;;;9.30;4.67;;;5.80;99.70;;;;;;5072245;28;20857;-66
2021/12/12 18:13:12;;;;;;;12.07;5.20;;;5.70;99.70;;;;;;5080759;28;21006;-66
2021/12/12 18:15:56;;;;;;;11.50;6.10;;;5.80;99.70;;;;;;5064895;28;20479;-66
2021/12/12 18:18:55;;;;;;;11.33;5.90;;;5.80;99.70;;;;;;5072548;28;20944;-66
2021/12/12 18:21:28;;;;;;;10.97;6.13;;;5.90;99.70;;;;;;5067629;28;20549;-66
2021/12/12 18:23:58;;;;;;;9.70;5.53;;;5.80;99.70;;;;;;5063670;28;20478;-66
2021/12/12 18:27:04;;;;;;;10.93;5.00;;;5.80;99.70;;;;;;5070755;28;20949;-66
2021/12/12 18:29:35;;;;;;;10.13;5.10;;;5.80;99.70;;;;;;5041370;28;20441;-66
2021/12/12 18:32:06;;;;;;;9.83;4.87;;;5.70;99.70;;;;;;5076333;28;20452;-66
2021/12/12 18:34:43;;;;;;;9.40;4.90;;;5.70;99.70;;;;;;5072887;28;21064;-66